Notice: Undefined index: language in /home/u294900127/public_html/vam/index.php on line 31
Aeroboteco

 INFORMAÇÕES METEOROLÓGICAS
METAR FOR SBST
ADDS - METARS form results

(1518 UTC 25 June 2018)
Data provider http://aviationweather.gov/adds/metars/
 
METAR text: SBST 251500Z 15005KT 080V230 9999 FEW015 SCT023 24/19 Q1016
Conditions at: SBST (SANTOS (BRAZ-AFB, BR) observed 1500 UTC 25 June 2018
Temperature: 24.0°C (75°F)
Dewpoint: 19.0°C (66°F) [RH = 74%]
Pressure (altimeter): 30.00 inches Hg (1016.0 mb)
Winds: from the SSE (150 degrees) at 6 MPH (5 knots; 2.6 m/s)
Visibility: 6 or more miles (10+ km)
Ceiling: at least 12,000 feet AGL
Clouds: few clouds at 1500 feet AGL
scattered clouds at 2300 feet AGL
Weather: no significant weather observed at this time

 MAPA DO AEROPORTO

 INFORMAÇÕES DA PISTA
Pista 17 Tamanho da pista 4560 ft Largura da pista 148 ft
Elevação da pista 0 ft Ranhura da pista 0 ft Proa da pista 0
Pista 35 Tamanho da pista 4560 ft Largura da pista 148 ft
Elevação da pista 0 ft Ranhura da pista 0 ft Proa da pista 0

 FREQUÊNCIAS DO AEROPORTO
Tipo APP Nome SAO PAULO Frequência 119.8 MHZ
Tipo TWR Nome TWR Frequência 118.3 MHZ

 AUXÍLIOS DE NAVEGAÇÃO PRÓXIMOS AO AEROPORTO
Tipo NDB Nome Vicente Frequência 360 KHZ
Tipo NDB Nome Santos Frequência 375 KHZ



Powered by Virtual Airlines Manager [v2.6.2]